sensor_id;sensor_type;location;lat;lon;timestamp;temperature;humidity
32366;DHT22;18837;46.832;16.838;2022-09-09T00:02:01;22.90;75.50
32366;DHT22;18837;46.832;16.838;2022-09-09T00:04:33;22.80;76.40
32366;DHT22;18837;46.832;16.838;2022-09-09T00:10:36;22.90;76.50
32366;DHT22;18837;46.832;16.838;2022-09-09T00:21:25;22.90;76.30
32366;DHT22;18837;46.832;16.838;2022-09-09T00:23:54;22.90;75.80
32366;DHT22;18837;46.832;16.838;2022-09-09T00:31:30;22.90;75.80
32366;DHT22;18837;46.832;16.838;2022-09-09T00:34:14;22.80;75.50
32366;DHT22;18837;46.832;16.838;2022-09-09T00:36:41;22.80;76.20
32366;DHT22;18837;46.832;16.838;2022-09-09T00:39:27;22.90;75.70
32366;DHT22;18837;46.832;16.838;2022-09-09T00:50:30;22.80;76.20
32366;DHT22;18837;46.832;16.838;2022-09-09T00:58:15;22.80;76.40
32366;DHT22;18837;46.832;16.838;2022-09-09T01:00:47;22.70;75.80
32366;DHT22;18837;46.832;16.838;2022-09-09T01:06:33;22.60;76.40
32366;DHT22;18837;46.832;16.838;2022-09-09T01:09:16;22.60;76.40
32366;DHT22;18837;46.832;16.838;2022-09-09T01:12:14;22.60;76.50
32366;DHT22;18837;46.832;16.838;2022-09-09T01:14:48;22.60;76.50
32366;DHT22;18837;46.832;16.838;2022-09-09T01:17:21;22.60;76.10
32366;DHT22;18837;46.832;16.838;2022-09-09T01:23:04;22.50;76.80
32366;DHT22;18837;46.832;16.838;2022-09-09T01:28:14;22.50;76.60
32366;DHT22;18837;46.832;16.838;2022-09-09T01:30:41;22.50;76.30
32366;DHT22;18837;46.832;16.838;2022-09-09T01:33:15;22.50;76.40
32366;DHT22;18837;46.832;16.838;2022-09-09T01:35:48;22.50;76.90
32366;DHT22;18837;46.832;16.838;2022-09-09T01:38:17;22.50;76.40
32366;DHT22;18837;46.832;16.838;2022-09-09T01:40:43;22.50;76.60
32366;DHT22;18837;46.832;16.838;2022-09-09T01:43:10;22.50;76.40
32366;DHT22;18837;46.832;16.838;2022-09-09T01:45:37;22.50;76.40
32366;DHT22;18837;46.832;16.838;2022-09-09T01:48:04;22.50;76.40
32366;DHT22;18837;46.832;16.838;2022-09-09T01:50:29;22.50;76.10
32366;DHT22;18837;46.832;16.838;2022-09-09T01:52:58;22.50;76.30
32366;DHT22;18837;46.832;16.838;2022-09-09T01:55:37;22.40;76.50
32366;DHT22;18837;46.832;16.838;2022-09-09T02:03:28;22.40;76.30
32366;DHT22;18837;46.832;16.838;2022-09-09T02:06:19;22.40;76.00
32366;DHT22;18837;46.832;16.838;2022-09-09T02:08:53;22.40;76.20
32366;DHT22;18837;46.832;16.838;2022-09-09T02:11:22;22.30;76.10
32366;DHT22;18837;46.832;16.838;2022-09-09T02:13:51;22.30;76.20
32366;DHT22;18837;46.832;16.838;2022-09-09T02:16:28;22.30;77.20
32366;DHT22;18837;46.832;16.838;2022-09-09T02:19:01;22.30;76.60
32366;DHT22;18837;46.832;16.838;2022-09-09T02:21:29;22.30;76.80
32366;DHT22;18837;46.832;16.838;2022-09-09T02:23:58;22.20;76.50
32366;DHT22;18837;46.832;16.838;2022-09-09T02:26:26;22.20;76.50
32366;DHT22;18837;46.832;16.838;2022-09-09T02:28:55;22.20;76.70
32366;DHT22;18837;46.832;16.838;2022-09-09T02:31:25;22.20;76.50
32366;DHT22;18837;46.832;16.838;2022-09-09T02:33:55;22.10;76.60
32366;DHT22;18837;46.832;16.838;2022-09-09T02:36:23;22.10;77.00
32366;DHT22;18837;46.832;16.838;2022-09-09T02:38:50;22.10;77.00
32366;DHT22;18837;46.832;16.838;2022-09-09T02:41:26;22.10;76.90
32366;DHT22;18837;46.832;16.838;2022-09-09T02:43:53;22.10;76.70
32366;DHT22;18837;46.832;16.838;2022-09-09T02:49:06;22.10;76.70
32366;DHT22;18837;46.832;16.838;2022-09-09T02:54:30;22.10;77.00
32366;DHT22;18837;46.832;16.838;2022-09-09T02:57:03;22.10;76.70
32366;DHT22;18837;46.832;16.838;2022-09-09T02:59:31;22.10;76.60
32366;DHT22;18837;46.832;16.838;2022-09-09T03:01:57;22.10;76.60
32366;DHT22;18837;46.832;16.838;2022-09-09T03:04:23;22.10;77.00
32366;DHT22;18837;46.832;16.838;2022-09-09T03:06:51;22.10;76.60
32366;DHT22;18837;46.832;16.838;2022-09-09T03:09:19;22.10;76.70
32366;DHT22;18837;46.832;16.838;2022-09-09T03:11:45;22.10;76.60
32366;DHT22;18837;46.832;16.838;2022-09-09T03:14:11;22.00;76.70
32366;DHT22;18837;46.832;16.838;2022-09-09T03:16:37;22.00;76.40
32366;DHT22;18837;46.832;16.838;2022-09-09T03:19:03;22.00;76.10
32366;DHT22;18837;46.832;16.838;2022-09-09T03:21:29;22.00;76.30
32366;DHT22;18837;46.832;16.838;2022-09-09T03:23:54;21.90;76.40
32366;DHT22;18837;46.832;16.838;2022-09-09T03:26:20;21.90;76.40
32366;DHT22;18837;46.832;16.838;2022-09-09T03:28:46;21.90;76.50
32366;DHT22;18837;46.832;16.838;2022-09-09T03:31:12;21.90;76.30
32366;DHT22;18837;46.832;16.838;2022-09-09T03:33:38;21.80;76.70
32366;DHT22;18837;46.832;16.838;2022-09-09T03:36:05;21.80;76.60
32366;DHT22;18837;46.832;16.838;2022-09-09T03:38:31;21.80;76.70
32366;DHT22;18837;46.832;16.838;2022-09-09T03:40:57;21.80;76.70
32366;DHT22;18837;46.832;16.838;2022-09-09T03:43:25;21.80;76.70
32366;DHT22;18837;46.832;16.838;2022-09-09T03:45:51;21.80;76.90
32366;DHT22;18837;46.832;16.838;2022-09-09T03:48:18;21.80;77.10
32366;DHT22;18837;46.832;16.838;2022-09-09T03:50:48;21.80;77.50
32366;DHT22;18837;46.832;16.838;2022-09-09T03:53:16;21.80;77.00
32366;DHT22;18837;46.832;16.838;2022-09-09T03:55:46;21.70;76.90
32366;DHT22;18837;46.832;16.838;2022-09-09T03:58:13;21.80;76.90
32366;DHT22;18837;46.832;16.838;2022-09-09T04:00:40;21.80;76.70
32366;DHT22;18837;46.832;16.838;2022-09-09T04:03:11;21.80;77.00
32366;DHT22;18837;46.832;16.838;2022-09-09T04:05:39;21.80;77.00
32366;DHT22;18837;46.832;16.838;2022-09-09T04:08:06;21.70;76.80
32366;DHT22;18837;46.832;16.838;2022-09-09T04:10:32;21.80;76.90
32366;DHT22;18837;46.832;16.838;2022-09-09T04:12:58;21.80;76.80
32366;DHT22;18837;46.832;16.838;2022-09-09T04:15:24;21.80;77.10
32366;DHT22;18837;46.832;16.838;2022-09-09T04:17:50;21.80;77.40
32366;DHT22;18837;46.832;16.838;2022-09-09T04:20:16;21.80;76.70
32366;DHT22;18837;46.832;16.838;2022-09-09T04:22:42;21.80;77.00
32366;DHT22;18837;46.832;16.838;2022-09-09T04:25:08;21.80;76.60
32366;DHT22;18837;46.832;16.838;2022-09-09T04:27:33;21.70;76.70
32366;DHT22;18837;46.832;16.838;2022-09-09T04:29:59;21.70;76.40
32366;DHT22;18837;46.832;16.838;2022-09-09T04:32:25;21.70;76.70
32366;DHT22;18837;46.832;16.838;2022-09-09T04:34:53;21.70;76.90
32366;DHT22;18837;46.832;16.838;2022-09-09T04:37:19;21.70;76.50
32366;DHT22;18837;46.832;16.838;2022-09-09T04:39:44;21.60;76.90
32366;DHT22;18837;46.832;16.838;2022-09-09T04:42:36;21.60;76.90
32366;DHT22;18837;46.832;16.838;2022-09-09T04:45:11;21.60;77.20
32366;DHT22;18837;46.832;16.838;2022-09-09T04:47:38;21.60;77.30
32366;DHT22;18837;46.832;16.838;2022-09-09T04:50:03;21.60;77.30
32366;DHT22;18837;46.832;16.838;2022-09-09T04:52:30;21.60;77.80
32366;DHT22;18837;46.832;16.838;2022-09-09T04:54:56;21.60;77.50
32366;DHT22;18837;46.832;16.838;2022-09-09T04:57:21;21.50;77.50
32366;DHT22;18837;46.832;16.838;2022-09-09T04:59:47;21.60;77.70
32366;DHT22;18837;46.832;16.838;2022-09-09T05:02:13;21.60;77.70
32366;DHT22;18837;46.832;16.838;2022-09-09T05:04:39;21.60;77.80
32366;DHT22;18837;46.832;16.838;2022-09-09T05:07:04;21.60;77.40
32366;DHT22;18837;46.832;16.838;2022-09-09T05:09:30;21.60;77.60
32366;DHT22;18837;46.832;16.838;2022-09-09T05:11:56;21.80;77.40
32366;DHT22;18837;46.832;16.838;2022-09-09T05:14:21;21.60;76.90
32366;DHT22;18837;46.832;16.838;2022-09-09T05:16:48;21.60;76.80
32366;DHT22;18837;46.832;16.838;2022-09-09T05:19:20;21.60;77.50
32366;DHT22;18837;46.832;16.838;2022-09-09T05:21:46;21.60;77.00
32366;DHT22;18837;46.832;16.838;2022-09-09T05:24:12;21.60;77.40
32366;DHT22;18837;46.832;16.838;2022-09-09T05:26:38;21.60;77.30
32366;DHT22;18837;46.832;16.838;2022-09-09T05:29:04;21.70;77.30
32366;DHT22;18837;46.832;16.838;2022-09-09T05:31:31;21.70;77.30
32366;DHT22;18837;46.832;16.838;2022-09-09T05:33:58;21.60;76.90
32366;DHT22;18837;46.832;16.838;2022-09-09T05:36:24;21.60;76.80
32366;DHT22;18837;46.832;16.838;2022-09-09T05:38:50;21.60;77.00
32366;DHT22;18837;46.832;16.838;2022-09-09T05:41:17;21.60;76.90
32366;DHT22;18837;46.832;16.838;2022-09-09T05:43:43;21.60;77.50
32366;DHT22;18837;46.832;16.838;2022-09-09T05:46:12;21.50;77.80
32366;DHT22;18837;46.832;16.838;2022-09-09T05:48:44;21.50;77.80
32366;DHT22;18837;46.832;16.838;2022-09-09T05:51:15;21.50;77.70
32366;DHT22;18837;46.832;16.838;2022-09-09T05:53:45;21.50;78.00
32366;DHT22;18837;46.832;16.838;2022-09-09T05:56:19;21.50;78.00
32366;DHT22;18837;46.832;16.838;2022-09-09T05:58:46;21.50;77.90
32366;DHT22;18837;46.832;16.838;2022-09-09T06:01:23;21.50;78.60
32366;DHT22;18837;46.832;16.838;2022-09-09T06:03:50;21.50;78.60
32366;DHT22;18837;46.832;16.838;2022-09-09T06:06:19;21.50;78.00
32366;DHT22;18837;46.832;16.838;2022-09-09T06:08:55;21.50;78.10
32366;DHT22;18837;46.832;16.838;2022-09-09T06:11:29;21.50;77.60
32366;DHT22;18837;46.832;16.838;2022-09-09T06:13:58;21.50;77.70
32366;DHT22;18837;46.832;16.838;2022-09-09T06:16:26;21.50;78.40
32366;DHT22;18837;46.832;16.838;2022-09-09T06:18:53;21.50;77.60
32366;DHT22;18837;46.832;16.838;2022-09-09T06:21:39;21.60;77.70
32366;DHT22;18837;46.832;16.838;2022-09-09T06:24:05;21.60;77.60
32366;DHT22;18837;46.832;16.838;2022-09-09T06:26:34;21.60;77.50
32366;DHT22;18837;46.832;16.838;2022-09-09T06:29:01;21.60;77.60
32366;DHT22;18837;46.832;16.838;2022-09-09T06:31:29;21.60;77.30
32366;DHT22;18837;46.832;16.838;2022-09-09T06:33:56;21.60;78.20
32366;DHT22;18837;46.832;16.838;2022-09-09T06:38:49;21.60;77.80
32366;DHT22;18837;46.832;16.838;2022-09-09T06:41:17;21.60;77.50
32366;DHT22;18837;46.832;16.838;2022-09-09T06:43:45;21.60;77.40
32366;DHT22;18837;46.832;16.838;2022-09-09T06:46:15;21.60;78.20
32366;DHT22;18837;46.832;16.838;2022-09-09T06:48:42;21.50;77.30
32366;DHT22;18837;46.832;16.838;2022-09-09T06:51:18;21.50;77.60
32366;DHT22;18837;46.832;16.838;2022-09-09T06:53:45;21.50;77.80
32366;DHT22;18837;46.832;16.838;2022-09-09T06:56:17;21.50;77.90
32366;DHT22;18837;46.832;16.838;2022-09-09T06:58:44;21.50;78.60
32366;DHT22;18837;46.832;16.838;2022-09-09T07:01:13;21.50;78.20
32366;DHT22;18837;46.832;16.838;2022-09-09T07:03:40;21.50;78.10
32366;DHT22;18837;46.832;16.838;2022-09-09T07:06:06;21.50;78.80
32366;DHT22;18837;46.832;16.838;2022-09-09T07:08:33;21.50;78.40
32366;DHT22;18837;46.832;16.838;2022-09-09T07:11:06;21.50;78.10
32366;DHT22;18837;46.832;16.838;2022-09-09T07:13:33;21.40;79.10
32366;DHT22;18837;46.832;16.838;2022-09-09T07:16:10;21.50;78.10
32366;DHT22;18837;46.832;16.838;2022-09-09T07:18:42;21.50;78.10
32366;DHT22;18837;46.832;16.838;2022-09-09T07:21:10;21.50;78.20
32366;DHT22;18837;46.832;16.838;2022-09-09T07:23:35;21.60;78.50
32366;DHT22;18837;46.832;16.838;2022-09-09T07:26:02;21.60;78.20
32366;DHT22;18837;46.832;16.838;2022-09-09T07:28:28;21.60;78.00
32366;DHT22;18837;46.832;16.838;2022-09-09T07:30:57;21.60;77.90
32366;DHT22;18837;46.832;16.838;2022-09-09T07:33:42;21.70;77.80
32366;DHT22;18837;46.832;16.838;2022-09-09T07:36:45;21.70;77.60
32366;DHT22;18837;46.832;16.838;2022-09-09T07:39:34;21.70;78.10
32366;DHT22;18837;46.832;16.838;2022-09-09T07:42:00;21.80;77.60
32366;DHT22;18837;46.832;16.838;2022-09-09T07:44:26;21.80;77.50
32366;DHT22;18837;46.832;16.838;2022-09-09T07:46:57;21.80;77.50
32366;DHT22;18837;46.832;16.838;2022-09-09T07:49:25;21.80;78.00
32366;DHT22;18837;46.832;16.838;2022-09-09T07:52:14;21.80;78.40
32366;DHT22;18837;46.832;16.838;2022-09-09T07:54:40;21.80;78.40
32366;DHT22;18837;46.832;16.838;2022-09-09T07:57:06;21.70;77.80
32366;DHT22;18837;46.832;16.838;2022-09-09T07:59:32;21.70;77.80
32366;DHT22;18837;46.832;16.838;2022-09-09T08:01:59;21.70;78.30
32366;DHT22;18837;46.832;16.838;2022-09-09T08:04:25;21.70;78.30
32366;DHT22;18837;46.832;16.838;2022-09-09T08:06:52;21.70;78.30
32366;DHT22;18837;46.832;16.838;2022-09-09T08:09:37;21.70;78.20
32366;DHT22;18837;46.832;16.838;2022-09-09T08:12:15;21.70;78.60
32366;DHT22;18837;46.832;16.838;2022-09-09T08:14:41;21.70;78.10
32366;DHT22;18837;46.832;16.838;2022-09-09T08:17:07;21.70;78.50
32366;DHT22;18837;46.832;16.838;2022-09-09T08:19:33;21.80;78.60
32366;DHT22;18837;46.832;16.838;2022-09-09T08:22:02;21.80;78.60
32366;DHT22;18837;46.832;16.838;2022-09-09T08:24:28;21.80;77.80
32366;DHT22;18837;46.832;16.838;2022-09-09T08:26:54;21.90;77.60
32366;DHT22;18837;46.832;16.838;2022-09-09T08:29:22;22.00;77.00
32366;DHT22;18837;46.832;16.838;2022-09-09T08:31:53;22.10;76.60
32366;DHT22;18837;46.832;16.838;2022-09-09T08:34:20;22.20;76.40
32366;DHT22;18837;46.832;16.838;2022-09-09T08:36:47;22.30;76.20
32366;DHT22;18837;46.832;16.838;2022-09-09T08:39:15;22.40;75.90
32366;DHT22;18837;46.832;16.838;2022-09-09T08:48:20;22.60;75.90
32366;DHT22;18837;46.832;16.838;2022-09-09T08:50:52;22.70;74.90
32366;DHT22;18837;46.832;16.838;2022-09-09T08:53:23;22.70;74.80
32366;DHT22;18837;46.832;16.838;2022-09-09T08:55:53;22.80;74.70
32366;DHT22;18837;46.832;16.838;2022-09-09T08:58:46;22.80;74.90
32366;DHT22;18837;46.832;16.838;2022-09-09T09:04:52;22.90;76.40
32366;DHT22;18837;46.832;16.838;2022-09-09T09:07:44;22.70;76.30
32366;DHT22;18837;46.832;16.838;2022-09-09T09:10:43;22.70;75.60
32366;DHT22;18837;46.832;16.838;2022-09-09T09:13:19;22.60;76.50
32366;DHT22;18837;46.832;16.838;2022-09-09T09:15:50;22.60;76.20
32366;DHT22;18837;46.832;16.838;2022-09-09T09:18:18;22.60;76.20
32366;DHT22;18837;46.832;16.838;2022-09-09T09:20:50;22.60;76.70
32366;DHT22;18837;46.832;16.838;2022-09-09T09:23:33;22.60;77.40
32366;DHT22;18837;46.832;16.838;2022-09-09T09:26:01;22.60;76.40
32366;DHT22;18837;46.832;16.838;2022-09-09T09:28:30;22.60;76.40
32366;DHT22;18837;46.832;16.838;2022-09-09T09:33:35;22.80;75.70
32366;DHT22;18837;46.832;16.838;2022-09-09T09:36:09;22.80;75.30
32366;DHT22;18837;46.832;16.838;2022-09-09T09:38:36;22.90;75.30
32366;DHT22;18837;46.832;16.838;2022-09-09T09:41:02;22.90;75.00
32366;DHT22;18837;46.832;16.838;2022-09-09T09:43:33;23.00;74.60
32366;DHT22;18837;46.832;16.838;2022-09-09T09:45:59;23.00;75.20
32366;DHT22;18837;46.832;16.838;2022-09-09T09:48:26;23.10;74.30
32366;DHT22;18837;46.832;16.838;2022-09-09T09:53:33;23.10;75.10
32366;DHT22;18837;46.832;16.838;2022-09-09T09:56:01;23.10;73.90
32366;DHT22;18837;46.832;16.838;2022-09-09T09:58:31;23.10;73.90
32366;DHT22;18837;46.832;16.838;2022-09-09T10:00:59;23.20;73.90
32366;DHT22;18837;46.832;16.838;2022-09-09T10:03:31;23.20;73.60
32366;DHT22;18837;46.832;16.838;2022-09-09T10:05:57;23.20;73.50
32366;DHT22;18837;46.832;16.838;2022-09-09T10:08:25;23.20;73.50
32366;DHT22;18837;46.832;16.838;2022-09-09T10:16:35;23.20;74.10
32366;DHT22;18837;46.832;16.838;2022-09-09T10:19:15;23.10;75.20
32366;DHT22;18837;46.832;16.838;2022-09-09T10:30:21;23.00;75.80
32366;DHT22;18837;46.832;16.838;2022-09-09T10:33:10;23.00;76.20
32366;DHT22;18837;46.832;16.838;2022-09-09T10:53:21;23.50;75.30
32366;DHT22;18837;46.832;16.838;2022-09-09T10:56:01;23.60;74.90
32366;DHT22;18837;46.832;16.838;2022-09-09T10:58:40;23.70;73.60
32366;DHT22;18837;46.832;16.838;2022-09-09T11:01:20;23.80;73.20
32366;DHT22;18837;46.832;16.838;2022-09-09T11:04:05;23.70;73.30
32366;DHT22;18837;46.832;16.838;2022-09-09T11:06:39;23.80;74.00
32366;DHT22;18837;46.832;16.838;2022-09-09T11:09:08;23.80;72.90
32366;DHT22;18837;46.832;16.838;2022-09-09T11:11:42;23.90;72.70
32366;DHT22;18837;46.832;16.838;2022-09-09T11:14:21;24.00;72.70
32366;DHT22;18837;46.832;16.838;2022-09-09T11:17:20;24.00;72.70
32366;DHT22;18837;46.832;16.838;2022-09-09T11:19:55;24.00;73.70
32366;DHT22;18837;46.832;16.838;2022-09-09T11:28:22;24.10;74.20
32366;DHT22;18837;46.832;16.838;2022-09-09T11:33:58;24.10;74.90
32366;DHT22;18837;46.832;16.838;2022-09-09T11:44:41;24.00;74.50
32366;DHT22;18837;46.832;16.838;2022-09-09T11:47:22;24.00;74.00
32366;DHT22;18837;46.832;16.838;2022-09-09T11:49:50;23.90;73.50
32366;DHT22;18837;46.832;16.838;2022-09-09T11:52:45;23.90;74.30
32366;DHT22;18837;46.832;16.838;2022-09-09T11:55:31;24.00;75.20
32366;DHT22;18837;46.832;16.838;2022-09-09T11:58:03;24.00;75.50
32366;DHT22;18837;46.832;16.838;2022-09-09T12:02:59;24.10;73.90
32366;DHT22;18837;46.832;16.838;2022-09-09T12:05:36;24.10;73.30
32366;DHT22;18837;46.832;16.838;2022-09-09T12:08:04;24.20;73.40
32366;DHT22;18837;46.832;16.838;2022-09-09T12:10:32;24.30;73.10
32366;DHT22;18837;46.832;16.838;2022-09-09T12:13:18;24.30;72.90
32366;DHT22;18837;46.832;16.838;2022-09-09T12:15:53;24.30;73.50
32366;DHT22;18837;46.832;16.838;2022-09-09T12:18:23;24.30;72.30
32366;DHT22;18837;46.832;16.838;2022-09-09T12:21:16;24.40;71.90
32366;DHT22;18837;46.832;16.838;2022-09-09T12:23:54;24.40;73.20
32366;DHT22;18837;46.832;16.838;2022-09-09T12:34:44;24.50;72.30
32366;DHT22;18837;46.832;16.838;2022-09-09T12:39:58;24.40;72.10
32366;DHT22;18837;46.832;16.838;2022-09-09T12:42:25;24.50;71.00
32366;DHT22;18837;46.832;16.838;2022-09-09T12:44:56;24.50;71.00
32366;DHT22;18837;46.832;16.838;2022-09-09T12:48:10;24.40;71.20
32366;DHT22;18837;46.832;16.838;2022-09-09T12:50:19;24.30;71.20
32366;DHT22;18837;46.832;16.838;2022-09-09T12:52:47;24.30;71.70
32366;DHT22;18837;46.832;16.838;2022-09-09T12:55:20;24.20;71.50
32366;DHT22;18837;46.832;16.838;2022-09-09T12:57:48;24.20;71.70
32366;DHT22;18837;46.832;16.838;2022-09-09T13:00:19;24.10;71.50
32366;DHT22;18837;46.832;16.838;2022-09-09T13:02:53;24.10;71.70
32366;DHT22;18837;46.832;16.838;2022-09-09T13:07:46;24.00;72.00
32366;DHT22;18837;46.832;16.838;2022-09-09T13:10:14;24.00;72.30
32366;DHT22;18837;46.832;16.838;2022-09-09T13:12:40;24.00;71.90
32366;DHT22;18837;46.832;16.838;2022-09-09T13:15:19;24.00;72.20
32366;DHT22;18837;46.832;16.838;2022-09-09T13:17:50;24.00;71.90
32366;DHT22;18837;46.832;16.838;2022-09-09T13:20:18;24.10;71.80
32366;DHT22;18837;46.832;16.838;2022-09-09T13:22:46;24.10;72.00
32366;DHT22;18837;46.832;16.838;2022-09-09T13:25:24;24.10;71.20
32366;DHT22;18837;46.832;16.838;2022-09-09T13:28:04;24.20;70.90
32366;DHT22;18837;46.832;16.838;2022-09-09T13:30:33;24.30;71.00
32366;DHT22;18837;46.832;16.838;2022-09-09T13:38:22;24.40;71.90
32366;DHT22;18837;46.832;16.838;2022-09-09T13:41:01;24.40;70.70
32366;DHT22;18837;46.832;16.838;2022-09-09T13:43:31;24.40;71.60
32366;DHT22;18837;46.832;16.838;2022-09-09T13:46:02;24.40;70.30
32366;DHT22;18837;46.832;16.838;2022-09-09T13:48:28;24.50;70.30
32366;DHT22;18837;46.832;16.838;2022-09-09T13:51:01;24.50;70.90
32366;DHT22;18837;46.832;16.838;2022-09-09T13:53:32;24.60;70.10
32366;DHT22;18837;46.832;16.838;2022-09-09T13:55:58;24.60;70.30
32366;DHT22;18837;46.832;16.838;2022-09-09T13:58:25;24.60;70.00
32366;DHT22;18837;46.832;16.838;2022-09-09T14:00:52;24.60;70.50
32366;DHT22;18837;46.832;16.838;2022-09-09T14:03:19;24.60;69.90
32366;DHT22;18837;46.832;16.838;2022-09-09T14:05:46;24.60;69.60
32366;DHT22;18837;46.832;16.838;2022-09-09T14:08:26;24.60;70.00
32366;DHT22;18837;46.832;16.838;2022-09-09T14:11:03;24.60;70.60
32366;DHT22;18837;46.832;16.838;2022-09-09T14:13:28;24.50;70.00
32366;DHT22;18837;46.832;16.838;2022-09-09T14:15:54;24.50;71.00
32366;DHT22;18837;46.832;16.838;2022-09-09T14:18:20;24.40;70.30
32366;DHT22;18837;46.832;16.838;2022-09-09T14:20:48;24.30;71.20
32366;DHT22;18837;46.832;16.838;2022-09-09T14:23:16;24.30;70.50
32366;DHT22;18837;46.832;16.838;2022-09-09T14:25:44;24.30;70.40
32366;DHT22;18837;46.832;16.838;2022-09-09T14:28:11;24.20;70.80
32366;DHT22;18837;46.832;16.838;2022-09-09T14:30:39;24.20;70.60
32366;DHT22;18837;46.832;16.838;2022-09-09T14:33:05;24.10;70.80
32366;DHT22;18837;46.832;16.838;2022-09-09T14:35:31;24.10;70.80
32366;DHT22;18837;46.832;16.838;2022-09-09T14:37:58;24.10;70.80
32366;DHT22;18837;46.832;16.838;2022-09-09T14:40:25;24.10;71.70
32366;DHT22;18837;46.832;16.838;2022-09-09T14:42:56;24.10;71.10
32366;DHT22;18837;46.832;16.838;2022-09-09T14:45:23;24.10;70.80
32366;DHT22;18837;46.832;16.838;2022-09-09T14:47:50;24.20;70.90
32366;DHT22;18837;46.832;16.838;2022-09-09T14:50:18;24.20;70.70
32366;DHT22;18837;46.832;16.838;2022-09-09T14:52:44;24.30;70.70
32366;DHT22;18837;46.832;16.838;2022-09-09T14:55:09;24.30;71.00
32366;DHT22;18837;46.832;16.838;2022-09-09T14:57:37;24.30;70.50
32366;DHT22;18837;46.832;16.838;2022-09-09T15:00:04;24.30;70.90
32366;DHT22;18837;46.832;16.838;2022-09-09T15:02:37;24.30;71.30
32366;DHT22;18837;46.832;16.838;2022-09-09T15:05:03;24.40;70.50
32366;DHT22;18837;46.832;16.838;2022-09-09T15:07:29;24.30;71.50
32366;DHT22;18837;46.832;16.838;2022-09-09T15:09:57;24.40;71.00
32366;DHT22;18837;46.832;16.838;2022-09-09T15:12:24;24.40;71.00
32366;DHT22;18837;46.832;16.838;2022-09-09T15:14:50;24.30;70.70
32366;DHT22;18837;46.832;16.838;2022-09-09T15:17:43;24.40;70.60
32366;DHT22;18837;46.832;16.838;2022-09-09T15:20:21;24.40;70.70
32366;DHT22;18837;46.832;16.838;2022-09-09T15:22:50;24.40;71.50
32366;DHT22;18837;46.832;16.838;2022-09-09T15:25:16;24.40;70.70
32366;DHT22;18837;46.832;16.838;2022-09-09T15:27:43;24.30;70.70
32366;DHT22;18837;46.832;16.838;2022-09-09T15:30:09;24.40;70.80
32366;DHT22;18837;46.832;16.838;2022-09-09T15:32:35;24.30;71.20
32366;DHT22;18837;46.832;16.838;2022-09-09T15:35:01;24.30;71.10
32366;DHT22;18837;46.832;16.838;2022-09-09T15:37:39;24.20;71.00
32366;DHT22;18837;46.832;16.838;2022-09-09T15:40:05;24.10;71.50
32366;DHT22;18837;46.832;16.838;2022-09-09T15:42:31;24.10;71.70
32366;DHT22;18837;46.832;16.838;2022-09-09T15:44:57;24.00;71.60
32366;DHT22;18837;46.832;16.838;2022-09-09T15:47:23;24.00;71.50
32366;DHT22;18837;46.832;16.838;2022-09-09T15:49:48;23.90;71.80
32366;DHT22;18837;46.832;16.838;2022-09-09T15:52:32;23.90;72.00
32366;DHT22;18837;46.832;16.838;2022-09-09T15:54:58;23.80;72.00
32366;DHT22;18837;46.832;16.838;2022-09-09T15:57:26;23.80;72.30
32366;DHT22;18837;46.832;16.838;2022-09-09T15:59:52;23.80;72.30
32366;DHT22;18837;46.832;16.838;2022-09-09T16:02:17;23.70;72.20
32366;DHT22;18837;46.832;16.838;2022-09-09T16:04:43;23.70;72.30
32366;DHT22;18837;46.832;16.838;2022-09-09T16:07:09;23.80;72.10
32366;DHT22;18837;46.832;16.838;2022-09-09T16:09:35;23.80;71.90
32366;DHT22;18837;46.832;16.838;2022-09-09T16:12:03;23.80;71.70
32366;DHT22;18837;46.832;16.838;2022-09-09T16:14:32;23.90;71.70
32366;DHT22;18837;46.832;16.838;2022-09-09T16:17:02;23.90;71.60
32366;DHT22;18837;46.832;16.838;2022-09-09T16:19:28;23.90;71.40
32366;DHT22;18837;46.832;16.838;2022-09-09T16:21:53;23.90;71.60
32366;DHT22;18837;46.832;16.838;2022-09-09T16:24:19;23.90;71.50
32366;DHT22;18837;46.832;16.838;2022-09-09T16:26:53;23.90;71.50
32366;DHT22;18837;46.832;16.838;2022-09-09T16:29:50;23.90;71.50
32366;DHT22;18837;46.832;16.838;2022-09-09T16:32:16;23.90;72.60
32366;DHT22;18837;46.832;16.838;2022-09-09T16:34:42;23.80;71.40
32366;DHT22;18837;46.832;16.838;2022-09-09T16:37:08;23.80;71.70
32366;DHT22;18837;46.832;16.838;2022-09-09T16:39:34;23.80;71.70
32366;DHT22;18837;46.832;16.838;2022-09-09T16:42:00;23.80;71.80
32366;DHT22;18837;46.832;16.838;2022-09-09T16:44:26;23.80;72.10
32366;DHT22;18837;46.832;16.838;2022-09-09T16:46:58;23.80;71.70
32366;DHT22;18837;46.832;16.838;2022-09-09T16:49:25;23.80;72.30
32366;DHT22;18837;46.832;16.838;2022-09-09T16:51:52;23.80;71.80
32366;DHT22;18837;46.832;16.838;2022-09-09T16:54:20;23.80;72.60
32366;DHT22;18837;46.832;16.838;2022-09-09T16:56:48;23.70;71.70
32366;DHT22;18837;46.832;16.838;2022-09-09T16:59:19;23.70;72.10
32366;DHT22;18837;46.832;16.838;2022-09-09T17:01:57;23.60;73.10
32366;DHT22;18837;46.832;16.838;2022-09-09T17:04:35;23.50;72.30
32366;DHT22;18837;46.832;16.838;2022-09-09T17:07:00;23.50;72.80
32366;DHT22;18837;46.832;16.838;2022-09-09T17:09:27;23.40;72.70
32366;DHT22;18837;46.832;16.838;2022-09-09T17:11:54;23.40;72.70
32366;DHT22;18837;46.832;16.838;2022-09-09T17:14:21;23.30;73.10
32366;DHT22;18837;46.832;16.838;2022-09-09T17:16:48;23.30;72.90
32366;DHT22;18837;46.832;16.838;2022-09-09T17:19:32;23.30;73.10
32366;DHT22;18837;46.832;16.838;2022-09-09T17:21:58;23.20;73.30
32366;DHT22;18837;46.832;16.838;2022-09-09T17:24:24;23.20;73.40
32366;DHT22;18837;46.832;16.838;2022-09-09T17:26:52;23.20;73.40
32366;DHT22;18837;46.832;16.838;2022-09-09T17:29:19;23.20;73.20
32366;DHT22;18837;46.832;16.838;2022-09-09T17:31:45;23.20;73.30
32366;DHT22;18837;46.832;16.838;2022-09-09T17:34:10;23.20;73.30
32366;DHT22;18837;46.832;16.838;2022-09-09T17:36:56;23.20;73.40
32366;DHT22;18837;46.832;16.838;2022-09-09T17:39:34;23.30;74.40
32366;DHT22;18837;46.832;16.838;2022-09-09T17:42:00;23.30;73.40
32366;DHT22;18837;46.832;16.838;2022-09-09T17:44:26;23.30;74.00
32366;DHT22;18837;46.832;16.838;2022-09-09T17:46:53;23.30;73.30
32366;DHT22;18837;46.832;16.838;2022-09-09T17:49:20;23.30;73.20
32366;DHT22;18837;46.832;16.838;2022-09-09T17:51:46;23.30;73.20
32366;DHT22;18837;46.832;16.838;2022-09-09T17:54:19;23.30;73.30